sensor_id;sensor_type;location;lat;lon;timestamp;pressure;altitude;pressure_sealevel;temperature;humidity
49178;BME280;35016;55.674;37.468;2023-04-08T00:01:56;100120.66;;;4.74;38.66
49178;BME280;35016;55.674;37.468;2023-04-08T00:04:23;100116.31;;;4.73;38.59
49178;BME280;35016;55.674;37.468;2023-04-08T00:06:51;100124.78;;;4.70;38.81
49178;BME280;35016;55.674;37.468;2023-04-08T00:09:18;100116.94;;;4.68;38.62
49178;BME280;35016;55.674;37.468;2023-04-08T00:11:45;100113.84;;;4.64;39.17
49178;BME280;35016;55.674;37.468;2023-04-08T00:14:12;100109.28;;;4.65;38.68
49178;BME280;35016;55.674;37.468;2023-04-08T00:16:39;100114.66;;;4.65;39.03
49178;BME280;35016;55.674;37.468;2023-04-08T00:19:06;100119.59;;;4.61;39.02
49178;BME280;35016;55.674;37.468;2023-04-08T00:21:33;100115.25;;;4.60;39.14
49178;BME280;35016;55.674;37.468;2023-04-08T00:24:00;100115.25;;;4.60;39.20
49178;BME280;35016;55.674;37.468;2023-04-08T00:26:27;100117.94;;;4.60;39.32
49178;BME280;35016;55.674;37.468;2023-04-08T00:28:54;100110.09;;;4.59;39.04
49178;BME280;35016;55.674;37.468;2023-04-08T00:31:21;100120.00;;;4.58;39.46
49178;BME280;35016;55.674;37.468;2023-04-08T00:33:49;100118.56;;;4.56;39.38
49178;BME280;35016;55.674;37.468;2023-04-08T00:36:16;100115.88;;;4.56;39.71
49178;BME280;35016;55.674;37.468;2023-04-08T00:38:44;100113.38;;;4.54;39.52
49178;BME280;35016;55.674;37.468;2023-04-08T00:41:12;100112.97;;;4.51;39.95
49178;BME280;35016;55.674;37.468;2023-04-08T00:43:39;100115.66;;;4.51;40.12
49178;BME280;35016;55.674;37.468;2023-04-08T00:46:06;100108.84;;;4.48;39.72
49178;BME280;35016;55.674;37.468;2023-04-08T00:48:34;100113.81;;;4.45;40.07
49178;BME280;35016;55.674;37.468;2023-04-08T00:51:02;100113.59;;;4.46;40.20
49178;BME280;35016;55.674;37.468;2023-04-08T00:53:30;100108.44;;;4.45;40.34
49178;BME280;35016;55.674;37.468;2023-04-08T00:55:57;100111.13;;;4.45;40.33
49178;BME280;35016;55.674;37.468;2023-04-08T00:58:26;100108.44;;;4.45;40.02
49178;BME280;35016;55.674;37.468;2023-04-08T01:01:22;100111.53;;;4.42;40.90
49178;BME280;35016;55.674;37.468;2023-04-08T01:03:57;100116.28;;;4.40;41.34
49178;BME280;35016;55.674;37.468;2023-04-08T01:06:49;100118.34;;;4.38;41.06
49178;BME280;35016;55.674;37.468;2023-04-08T01:09:18;100119.56;;;4.35;40.53
49178;BME280;35016;55.674;37.468;2023-04-08T01:11:49;100115.41;;;4.32;40.84
49178;BME280;35016;55.674;37.468;2023-04-08T01:14:20;100120.16;;;4.30;40.62
49178;BME280;35016;55.674;37.468;2023-04-08T01:16:50;100111.69;;;4.27;40.95
49178;BME280;35016;55.674;37.468;2023-04-08T01:19:33;100112.09;;;4.24;41.64
49178;BME280;35016;55.674;37.468;2023-04-08T01:22:18;100115.63;;;4.24;41.03
49178;BME280;35016;55.674;37.468;2023-04-08T01:24:50;100114.16;;;4.22;40.94
49178;BME280;35016;55.674;37.468;2023-04-08T01:27:24;100115.00;;;4.22;41.09
49178;BME280;35016;55.674;37.468;2023-04-08T01:29:53;100114.16;;;4.22;41.05
49178;BME280;35016;55.674;37.468;2023-04-08T01:32:21;100114.56;;;4.19;40.98
49178;BME280;35016;55.674;37.468;2023-04-08T01:34:50;100111.66;;;4.14;40.97
49178;BME280;35016;55.674;37.468;2023-04-08T01:37:19;100110.22;;;4.11;41.20
49178;BME280;35016;55.674;37.468;2023-04-08T01:39:47;100113.53;;;4.07;41.26
49178;BME280;35016;55.674;37.468;2023-04-08T01:42:15;100117.84;;;4.08;41.42
49178;BME280;35016;55.674;37.468;2023-04-08T01:44:42;100112.88;;;4.04;41.27
49178;BME280;35016;55.674;37.468;2023-04-08T01:47:11;100117.59;;;4.02;41.45
49178;BME280;35016;55.674;37.468;2023-04-08T01:49:39;100114.72;;;4.04;41.71
49178;BME280;35016;55.674;37.468;2023-04-08T01:52:08;100105.22;;;4.01;41.78
49178;BME280;35016;55.674;37.468;2023-04-08T01:54:36;100118.00;;;3.99;41.84
49178;BME280;35016;55.674;37.468;2023-04-08T01:57:05;100115.53;;;3.98;41.99
49178;BME280;35016;55.674;37.468;2023-04-08T01:59:35;100107.69;;;3.96;41.86
49178;BME280;35016;55.674;37.468;2023-04-08T02:02:05;100107.47;;;3.91;41.78
49178;BME280;35016;55.674;37.468;2023-04-08T02:04:35;100117.56;;;3.89;41.84
49178;BME280;35016;55.674;37.468;2023-04-08T02:07:03;100117.56;;;3.89;42.13
49178;BME280;35016;55.674;37.468;2023-04-08T02:09:31;100121.50;;;3.87;42.16
49178;BME280;35016;55.674;37.468;2023-04-08T02:11:58;100118.38;;;3.83;42.25
49178;BME280;35016;55.674;37.468;2023-04-08T02:14:26;100118.38;;;3.83;42.22
49178;BME280;35016;55.674;37.468;2023-04-08T02:17:07;100130.97;;;3.83;43.21
49178;BME280;35016;55.674;37.468;2023-04-08T02:19:40;100119.63;;;3.81;42.96
49178;BME280;35016;55.674;37.468;2023-04-08T02:22:18;100126.41;;;3.77;43.13
49178;BME280;35016;55.674;37.468;2023-04-08T02:24:50;100114.19;;;3.74;42.54
49178;BME280;35016;55.674;37.468;2023-04-08T02:27:19;100117.47;;;3.69;42.72
49178;BME280;35016;55.674;37.468;2023-04-08T02:29:48;100117.47;;;3.69;42.94
49178;BME280;35016;55.674;37.468;2023-04-08T02:32:16;100125.94;;;3.66;42.83
49178;BME280;35016;55.674;37.468;2023-04-08T02:34:44;100128.59;;;3.66;42.93
49178;BME280;35016;55.674;37.468;2023-04-08T02:37:12;100122.81;;;3.63;43.10
49178;BME280;35016;55.674;37.468;2023-04-08T02:39:39;100126.53;;;3.62;42.92
49178;BME280;35016;55.674;37.468;2023-04-08T02:42:07;100132.28;;;3.59;43.09
49178;BME280;35016;55.674;37.468;2023-04-08T02:44:37;100129.81;;;3.57;43.08
49178;BME280;35016;55.674;37.468;2023-04-08T02:47:04;100128.97;;;3.57;43.23
49178;BME280;35016;55.674;37.468;2023-04-08T02:49:33;100128.16;;;3.56;43.41
49178;BME280;35016;55.674;37.468;2023-04-08T02:52:00;100125.44;;;3.50;43.10
49178;BME280;35016;55.674;37.468;2023-04-08T02:54:27;100129.38;;;3.54;43.37
49178;BME280;35016;55.674;37.468;2023-04-08T02:56:54;100133.72;;;3.55;43.42
49178;BME280;35016;55.674;37.468;2023-04-08T02:59:22;100135.38;;;3.56;43.25
49178;BME280;35016;55.674;37.468;2023-04-08T03:01:49;100140.53;;;3.57;43.43
49178;BME280;35016;55.674;37.468;2023-04-08T03:04:17;100132.50;;;3.57;43.50
49178;BME280;35016;55.674;37.468;2023-04-08T03:06:44;100130.44;;;3.59;43.50
49178;BME280;35016;55.674;37.468;2023-04-08T03:09:11;100135.59;;;3.61;43.47
49178;BME280;35016;55.674;37.468;2023-04-08T03:11:38;100135.19;;;3.64;43.67
49178;BME280;35016;55.674;37.468;2023-04-08T03:14:05;100134.16;;;3.65;43.54
49178;BME280;35016;55.674;37.468;2023-04-08T03:16:32;100136.25;;;3.69;43.54
49178;BME280;35016;55.674;37.468;2023-04-08T03:18:59;100131.91;;;3.68;43.63
49178;BME280;35016;55.674;37.468;2023-04-08T03:21:26;100138.53;;;3.72;43.60
49178;BME280;35016;55.674;37.468;2023-04-08T03:23:53;100143.06;;;3.72;43.63
49178;BME280;35016;55.674;37.468;2023-04-08T03:26:20;100145.34;;;3.75;43.69
49178;BME280;35016;55.674;37.468;2023-04-08T03:28:47;100141.28;;;3.79;43.75
49178;BME280;35016;55.674;37.468;2023-04-08T03:31:15;100141.28;;;3.79;43.77
49178;BME280;35016;55.674;37.468;2023-04-08T03:33:42;100134.06;;;3.80;43.96
49178;BME280;35016;55.674;37.468;2023-04-08T03:36:09;100142.94;;;3.87;43.79
49178;BME280;35016;55.674;37.468;2023-04-08T03:38:36;100146.06;;;3.90;43.71
49178;BME280;35016;55.674;37.468;2023-04-08T03:41:03;100138.63;;;3.92;43.66
49178;BME280;35016;55.674;37.468;2023-04-08T03:43:30;100133.28;;;3.92;43.68
49178;BME280;35016;55.674;37.468;2023-04-08T03:45:58;100140.31;;;4.00;43.97
49178;BME280;35016;55.674;37.468;2023-04-08T03:48:25;100144.91;;;4.06;43.69
49178;BME280;35016;55.674;37.468;2023-04-08T03:50:53;100144.50;;;4.09;43.63
49178;BME280;35016;55.674;37.468;2023-04-08T03:53:21;100145.13;;;4.18;43.90
49178;BME280;35016;55.674;37.468;2023-04-08T03:55:48;100145.34;;;4.23;43.68
49178;BME280;35016;55.674;37.468;2023-04-08T03:58:16;100140.81;;;4.30;43.67
49178;BME280;35016;55.674;37.468;2023-04-08T04:00:44;100143.53;;;4.37;43.81
49178;BME280;35016;55.674;37.468;2023-04-08T04:03:11;100147.06;;;4.44;43.42
49178;BME280;35016;55.674;37.468;2023-04-08T04:05:39;100149.94;;;4.49;43.51
49178;BME280;35016;55.674;37.468;2023-04-08T04:08:06;100158.00;;;4.55;43.51
49178;BME280;35016;55.674;37.468;2023-04-08T04:10:35;100161.13;;;4.59;43.51
49178;BME280;35016;55.674;37.468;2023-04-08T04:13:02;100156.59;;;4.66;43.36
49178;BME280;35016;55.674;37.468;2023-04-08T04:15:29;100153.09;;;4.72;43.33
49178;BME280;35016;55.674;37.468;2023-04-08T04:17:56;100156.81;;;4.78;43.58
49178;BME280;35016;55.674;37.468;2023-04-08T04:20:23;100155.16;;;4.83;43.49
49178;BME280;35016;55.674;37.468;2023-04-08T04:22:51;100156.19;;;4.89;43.18
49178;BME280;35016;55.674;37.468;2023-04-08T04:25:18;100149.19;;;4.94;43.14
49178;BME280;35016;55.674;37.468;2023-04-08T04:27:47;100151.03;;;5.01;43.49
49178;BME280;35016;55.674;37.468;2023-04-08T04:30:17;100151.66;;;5.09;43.13
49178;BME280;35016;55.674;37.468;2023-04-08T04:32:45;100152.69;;;5.15;43.21
49178;BME280;35016;55.674;37.468;2023-04-08T04:35:12;100154.97;;;5.24;43.29
49178;BME280;35016;55.674;37.468;2023-04-08T04:37:39;100160.53;;;5.29;43.29
49178;BME280;35016;55.674;37.468;2023-04-08T04:40:06;100163.41;;;5.35;42.55
49178;BME280;35016;55.674;37.468;2023-04-08T04:42:34;100164.66;;;5.39;43.14
49178;BME280;35016;55.674;37.468;2023-04-08T04:45:01;100162.16;;;5.44;42.58
49178;BME280;35016;55.674;37.468;2023-04-08T04:47:28;100165.69;;;5.51;43.03
49178;BME280;35016;55.674;37.468;2023-04-08T04:49:58;100162.34;;;5.55;43.07
49178;BME280;35016;55.674;37.468;2023-04-08T04:52:25;100169.38;;;5.63;42.48
49178;BME280;35016;55.674;37.468;2023-04-08T04:54:52;100170.16;;;5.70;42.66
49178;BME280;35016;55.674;37.468;2023-04-08T04:57:20;100159.59;;;5.75;42.89
49178;BME280;35016;55.674;37.468;2023-04-08T04:59:47;100163.13;;;5.82;42.98
49178;BME280;35016;55.674;37.468;2023-04-08T05:02:14;100166.63;;;5.89;42.87
49178;BME280;35016;55.674;37.468;2023-04-08T05:04:41;100157.72;;;5.96;42.72
49178;BME280;35016;55.674;37.468;2023-04-08T05:07:08;100167.63;;;6.02;42.53
49178;BME280;35016;55.674;37.468;2023-04-08T05:09:35;100174.88;;;6.08;42.86
49178;BME280;35016;55.674;37.468;2023-04-08T05:12:02;100168.00;;;6.12;42.49
49178;BME280;35016;55.674;37.468;2023-04-08T05:14:30;100176.47;;;6.15;42.83
49178;BME280;35016;55.674;37.468;2023-04-08T05:16:57;100180.78;;;6.23;42.49
49178;BME280;35016;55.674;37.468;2023-04-08T05:19:24;100179.09;;;6.29;42.20
49178;BME280;35016;55.674;37.468;2023-04-08T05:21:51;100178.44;;;6.33;42.82
49178;BME280;35016;55.674;37.468;2023-04-08T05:24:18;100182.78;;;6.41;42.18
49178;BME280;35016;55.674;37.468;2023-04-08T05:26:47;100189.56;;;6.50;42.20
49178;BME280;35016;55.674;37.468;2023-04-08T05:29:18;100179.41;;;6.52;42.07
49178;BME280;35016;55.674;37.468;2023-04-08T05:31:47;100188.25;;;6.66;41.95
49178;BME280;35016;55.674;37.468;2023-04-08T05:34:14;100193.97;;;6.76;42.31
49178;BME280;35016;55.674;37.468;2023-04-08T05:36:44;100188.09;;;6.86;41.99
49178;BME280;35016;55.674;37.468;2023-04-08T05:39:11;100193.84;;;6.96;42.33
49178;BME280;35016;55.674;37.468;2023-04-08T05:41:39;100192.31;;;7.06;41.63
49178;BME280;35016;55.674;37.468;2023-04-08T05:44:09;100199.69;;;7.18;41.75
49178;BME280;35016;55.674;37.468;2023-04-08T05:46:37;100196.50;;;7.27;41.61
49178;BME280;35016;55.674;37.468;2023-04-08T05:49:04;100201.16;;;7.38;41.73
49178;BME280;35016;55.674;37.468;2023-04-08T05:51:33;100191.34;;;7.44;41.30
49178;BME280;35016;55.674;37.468;2023-04-08T05:54:00;100190.09;;;7.46;41.51
49178;BME280;35016;55.674;37.468;2023-04-08T05:56:27;100198.50;;;7.57;41.33
49178;BME280;35016;55.674;37.468;2023-04-08T05:58:54;100197.84;;;7.61;41.07
49178;BME280;35016;55.674;37.468;2023-04-08T06:01:24;100191.78;;;7.66;41.35
49178;BME280;35016;55.674;37.468;2023-04-08T06:03:52;100186.91;;;7.74;41.12
49178;BME280;35016;55.674;37.468;2023-04-08T06:06:22;100193.69;;;7.84;41.02
49178;BME280;35016;55.674;37.468;2023-04-08T06:08:49;100188.41;;;7.89;41.00
49178;BME280;35016;55.674;37.468;2023-04-08T06:11:17;100191.03;;;7.95;41.05
49178;BME280;35016;55.674;37.468;2023-04-08T06:13:44;100194.25;;;8.04;41.03
49178;BME280;35016;55.674;37.468;2023-04-08T06:16:12;100190.06;;;8.08;40.50
49178;BME280;35016;55.674;37.468;2023-04-08T06:18:47;100185.66;;;8.14;40.86
49178;BME280;35016;55.674;37.468;2023-04-08T06:21:15;100193.88;;;8.19;40.88
49178;BME280;35016;55.674;37.468;2023-04-08T06:23:45;100177.75;;;8.12;40.85
49178;BME280;35016;55.674;37.468;2023-04-08T06:26:12;100183.53;;;8.16;40.65
49178;BME280;35016;55.674;37.468;2023-04-08T06:29:00;100202.97;;;8.24;40.88
49178;BME280;35016;55.674;37.468;2023-04-08T06:31:29;100199.44;;;8.24;40.69
49178;BME280;35016;55.674;37.468;2023-04-08T06:33:57;100191.22;;;8.30;40.67
49178;BME280;35016;55.674;37.468;2023-04-08T06:36:30;100178.88;;;8.23;40.19
49178;BME280;35016;55.674;37.468;2023-04-08T06:39:10;100193.44;;;8.40;40.78
49178;BME280;35016;55.674;37.468;2023-04-08T06:41:38;100192.75;;;8.45;40.63
49178;BME280;35016;55.674;37.468;2023-04-08T06:44:19;100196.88;;;8.47;40.31
49178;BME280;35016;55.674;37.468;2023-04-08T06:46:49;100186.75;;;8.43;40.50
49178;BME280;35016;55.674;37.468;2023-04-08T06:49:19;100200.78;;;8.51;40.32
49178;BME280;35016;55.674;37.468;2023-04-08T06:54:55;100188.91;;;8.52;40.08
49178;BME280;35016;55.674;37.468;2023-04-08T06:57:23;100205.47;;;8.74;39.89
49178;BME280;35016;55.674;37.468;2023-04-08T06:59:52;100200.75;;;8.81;39.75
49178;BME280;35016;55.674;37.468;2023-04-08T07:02:22;100196.31;;;8.87;40.01
49178;BME280;35016;55.674;37.468;2023-04-08T07:04:50;100190.78;;;8.93;40.01
49178;BME280;35016;55.674;37.468;2023-04-08T07:07:17;100191.19;;;8.97;39.81
49178;BME280;35016;55.674;37.468;2023-04-08T07:09:44;100183.91;;;9.09;39.29
49178;BME280;35016;55.674;37.468;2023-04-08T07:12:15;100198.03;;;9.11;39.28
49178;BME280;35016;55.674;37.468;2023-04-08T07:14:45;100192.72;;;9.16;39.65
49178;BME280;35016;55.674;37.468;2023-04-08T07:17:12;100196.38;;;9.22;39.63
49178;BME280;35016;55.674;37.468;2023-04-08T07:19:39;100192.53;;;9.29;39.29
49178;BME280;35016;55.674;37.468;2023-04-08T07:22:06;100189.81;;;9.41;39.11
49178;BME280;35016;55.674;37.468;2023-04-08T07:24:33;100179.47;;;9.50;39.34
49178;BME280;35016;55.674;37.468;2023-04-08T07:27:00;100194.31;;;9.59;39.18
49178;BME280;35016;55.674;37.468;2023-04-08T07:29:27;100187.69;;;9.67;39.07
49178;BME280;35016;55.674;37.468;2023-04-08T07:31:54;100185.09;;;9.72;39.41
49178;BME280;35016;55.674;37.468;2023-04-08T07:34:21;100186.28;;;9.76;39.10
49178;BME280;35016;55.674;37.468;2023-04-08T07:36:49;100183.91;;;9.79;38.61
49178;BME280;35016;55.674;37.468;2023-04-08T07:39:16;100182.41;;;9.83;38.92
49178;BME280;35016;55.674;37.468;2023-04-08T07:41:43;100186.28;;;9.87;38.93
49178;BME280;35016;55.674;37.468;2023-04-08T07:44:10;100183.91;;;9.91;38.66
49178;BME280;35016;55.674;37.468;2023-04-08T07:46:37;100190.50;;;9.95;38.72
49178;BME280;35016;55.674;37.468;2023-04-08T07:49:05;100192.25;;;10.01;38.37
49178;BME280;35016;55.674;37.468;2023-04-08T07:51:32;100187.84;;;10.12;38.54
49178;BME280;35016;55.674;37.468;2023-04-08T07:54:00;100181.06;;;10.21;38.74
49178;BME280;35016;55.674;37.468;2023-04-08T07:56:27;100190.44;;;10.30;38.44
49178;BME280;35016;55.674;37.468;2023-04-08T07:58:55;100184.19;;;10.41;38.41
49178;BME280;35016;55.674;37.468;2023-04-08T08:01:22;100197.94;;;10.51;38.10
49178;BME280;35016;55.674;37.468;2023-04-08T08:03:50;100186.09;;;10.58;38.39
49178;BME280;35016;55.674;37.468;2023-04-08T08:06:18;100184.31;;;10.63;37.54
49178;BME280;35016;55.674;37.468;2023-04-08T08:08:46;100189.34;;;10.71;37.19
49178;BME280;35016;55.674;37.468;2023-04-08T08:11:14;100180.25;;;10.77;37.21
49178;BME280;35016;55.674;37.468;2023-04-08T08:13:41;100187.25;;;10.90;37.60
49178;BME280;35016;55.674;37.468;2023-04-08T08:16:08;100181.25;;;11.05;36.85
49178;BME280;35016;55.674;37.468;2023-04-08T08:18:38;100180.44;;;11.21;37.41
49178;BME280;35016;55.674;37.468;2023-04-08T08:21:06;100183.97;;;11.38;37.00
49178;BME280;35016;55.674;37.468;2023-04-08T08:23:34;100177.81;;;11.43;37.12
49178;BME280;35016;55.674;37.468;2023-04-08T08:26:07;100174.72;;;11.56;36.64
49178;BME280;35016;55.674;37.468;2023-04-08T08:28:38;100176.78;;;11.66;36.47
49178;BME280;35016;55.674;37.468;2023-04-08T08:31:05;100172.50;;;11.70;36.43
49178;BME280;35016;55.674;37.468;2023-04-08T08:33:33;100169.38;;;11.78;36.43
49178;BME280;35016;55.674;37.468;2023-04-08T08:36:00;100174.31;;;11.81;36.77
49178;BME280;35016;55.674;37.468;2023-04-08T08:38:27;100176.09;;;11.75;36.71
49178;BME280;35016;55.674;37.468;2023-04-08T08:40:56;100170.78;;;11.64;36.30
49178;BME280;35016;55.674;37.468;2023-04-08T08:43:24;100159.34;;;11.62;36.27
49178;BME280;35016;55.674;37.468;2023-04-08T08:45:52;100163.47;;;11.64;36.53
49178;BME280;35016;55.674;37.468;2023-04-08T08:48:19;100163.22;;;11.66;35.96
49178;BME280;35016;55.674;37.468;2023-04-08T08:50:47;100156.38;;;11.63;36.46
49178;BME280;35016;55.674;37.468;2023-04-08T08:53:14;100156.94;;;11.65;36.60
49178;BME280;35016;55.674;37.468;2023-04-08T08:55:41;100155.63;;;11.68;36.58
49178;BME280;35016;55.674;37.468;2023-04-08T08:58:11;100155.63;;;11.68;36.14
49178;BME280;35016;55.674;37.468;2023-04-08T09:00:40;100165.16;;;11.70;36.02
49178;BME280;35016;55.674;37.468;2023-04-08T09:03:31;100157.66;;;11.77;35.80
49178;BME280;35016;55.674;37.468;2023-04-08T09:06:00;100158.56;;;11.83;35.50
49178;BME280;35016;55.674;37.468;2023-04-08T09:08:34;100166.56;;;11.90;35.50
49178;BME280;35016;55.674;37.468;2023-04-08T09:11:16;100156.56;;;11.95;35.30
49178;BME280;35016;55.674;37.468;2023-04-08T09:13:45;100159.91;;;12.02;34.98
49178;BME280;35016;55.674;37.468;2023-04-08T09:16:14;100158.09;;;12.08;35.05
49178;BME280;35016;55.674;37.468;2023-04-08T09:18:45;100148.53;;;12.05;35.35
49178;BME280;35016;55.674;37.468;2023-04-08T09:21:15;100169.16;;;12.01;35.41
49178;BME280;35016;55.674;37.468;2023-04-08T09:26:18;100154.84;;;12.11;34.37
49178;BME280;35016;55.674;37.468;2023-04-08T09:29:04;100157.22;;;12.24;34.29
49178;BME280;35016;55.674;37.468;2023-04-08T09:31:55;100146.13;;;12.31;34.60
49178;BME280;35016;55.674;37.468;2023-04-08T09:34:24;100150.50;;;12.32;34.53
49178;BME280;35016;55.674;37.468;2023-04-08T09:36:53;100154.34;;;12.36;34.23
49178;BME280;35016;55.674;37.468;2023-04-08T09:39:21;100154.66;;;12.39;34.11
49178;BME280;35016;55.674;37.468;2023-04-08T09:41:50;100144.31;;;12.41;34.37
49178;BME280;35016;55.674;37.468;2023-04-08T09:44:19;100144.84;;;12.38;33.91
49178;BME280;35016;55.674;37.468;2023-04-08T09:49:27;100149.16;;;12.34;33.66
49178;BME280;35016;55.674;37.468;2023-04-08T09:52:10;100152.06;;;12.28;33.77
49178;BME280;35016;55.674;37.468;2023-04-08T09:55:04;100155.88;;;12.27;34.11
49178;BME280;35016;55.674;37.468;2023-04-08T09:57:48;100156.44;;;12.29;34.15
49178;BME280;35016;55.674;37.468;2023-04-08T10:00:17;100146.94;;;12.31;34.04
49178;BME280;35016;55.674;37.468;2023-04-08T10:03:30;100140.53;;;12.43;33.79
49178;BME280;35016;55.674;37.468;2023-04-08T10:06:01;100139.28;;;12.50;33.79
49178;BME280;35016;55.674;37.468;2023-04-08T10:08:29;100150.00;;;12.62;33.71
49178;BME280;35016;55.674;37.468;2023-04-08T10:10:58;100145.50;;;12.73;33.60
49178;BME280;35016;55.674;37.468;2023-04-08T10:13:26;100132.75;;;12.78;33.21
49178;BME280;35016;55.674;37.468;2023-04-08T10:16:22;100139.91;;;12.89;32.99
49178;BME280;35016;55.674;37.468;2023-04-08T10:18:55;100146.78;;;12.97;33.44
49178;BME280;35016;55.674;37.468;2023-04-08T10:24:02;100139.84;;;13.11;33.15
49178;BME280;35016;55.674;37.468;2023-04-08T10:26:42;100140.47;;;13.18;33.05
49178;BME280;35016;55.674;37.468;2023-04-08T10:31:55;100142.00;;;13.41;33.17
49178;BME280;35016;55.674;37.468;2023-04-08T10:34:25;100141.19;;;13.46;33.21
49178;BME280;35016;55.674;37.468;2023-04-08T10:36:54;100140.69;;;13.49;33.08
49178;BME280;35016;55.674;37.468;2023-04-08T10:39:24;100138.78;;;13.54;33.09
49178;BME280;35016;55.674;37.468;2023-04-08T10:41:51;100129.88;;;13.64;32.81
49178;BME280;35016;55.674;37.468;2023-04-08T10:44:23;100135.91;;;13.71;32.70
49178;BME280;35016;55.674;37.468;2023-04-08T10:46:51;100130.44;;;13.66;32.87
49178;BME280;35016;55.674;37.468;2023-04-08T10:49:19;100127.19;;;13.69;32.88
49178;BME280;35016;55.674;37.468;2023-04-08T10:51:46;100121.78;;;13.79;32.75
49178;BME280;35016;55.674;37.468;2023-04-08T10:54:15;100118.28;;;13.89;32.57
49178;BME280;35016;55.674;37.468;2023-04-08T10:56:48;100118.59;;;13.98;32.54
49178;BME280;35016;55.674;37.468;2023-04-08T10:59:19;100101.44;;;14.02;32.36
49178;BME280;35016;55.674;37.468;2023-04-08T11:01:52;100110.50;;;14.18;32.54
49178;BME280;35016;55.674;37.468;2023-04-08T11:04:21;100103.41;;;14.27;32.50
49178;BME280;35016;55.674;37.468;2023-04-08T11:06:51;100108.91;;;14.37;32.44
49178;BME280;35016;55.674;37.468;2023-04-08T11:09:19;100097.47;;;14.45;32.37
49178;BME280;35016;55.674;37.468;2023-04-08T11:11:46;100090.13;;;14.56;32.26
49178;BME280;35016;55.674;37.468;2023-04-08T11:14:13;100090.41;;;14.65;32.22
49178;BME280;35016;55.674;37.468;2023-04-08T11:16:42;100086.59;;;14.66;32.35
49178;BME280;35016;55.674;37.468;2023-04-08T11:19:12;100084.69;;;14.71;32.02
49178;BME280;35016;55.674;37.468;2023-04-08T11:21:39;100075.16;;;14.79;32.02
49178;BME280;35016;55.674;37.468;2023-04-08T11:24:10;100074.88;;;14.85;31.72
49178;BME280;35016;55.674;37.468;2023-04-08T11:26:38;100082.22;;;14.95;31.94
49178;BME280;35016;55.674;37.468;2023-04-08T11:29:09;100082.22;;;15.00;31.45
49178;BME280;35016;55.674;37.468;2023-04-08T11:31:41;100089.34;;;15.06;31.59
49178;BME280;35016;55.674;37.468;2023-04-08T11:34:10;100084.69;;;15.12;31.65
49178;BME280;35016;55.674;37.468;2023-04-08T11:36:39;100079.19;;;15.22;31.10
49178;BME280;35016;55.674;37.468;2023-04-08T11:39:10;100080.56;;;15.25;31.08
49178;BME280;35016;55.674;37.468;2023-04-08T11:41:38;100067.97;;;15.29;30.99
49178;BME280;35016;55.674;37.468;2023-04-08T11:44:07;100077.56;;;15.36;30.93
49178;BME280;35016;55.674;37.468;2023-04-08T11:46:34;100077.25;;;15.43;31.21
49178;BME280;35016;55.674;37.468;2023-04-08T11:49:06;100076.69;;;15.46;30.70
49178;BME280;35016;55.674;37.468;2023-04-08T11:51:34;100073.44;;;15.44;31.08
49178;BME280;35016;55.674;37.468;2023-04-08T11:54:04;100067.97;;;15.39;30.88
49178;BME280;35016;55.674;37.468;2023-04-08T11:56:44;100070.44;;;15.40;30.94
49178;BME280;35016;55.674;37.468;2023-04-08T11:59:12;100064.44;;;15.38;31.41
49178;BME280;35016;55.674;37.468;2023-04-08T12:01:39;100062.22;;;15.45;31.25
49178;BME280;35016;55.674;37.468;2023-04-08T12:04:06;100057.28;;;15.63;30.96
49178;BME280;35016;55.674;37.468;2023-04-08T12:06:36;100059.59;;;15.90;30.77
49178;BME280;35016;55.674;37.468;2023-04-08T12:09:03;100052.38;;;16.19;30.83
49178;BME280;35016;55.674;37.468;2023-04-08T12:11:30;100056.50;;;16.56;30.85
49178;BME280;35016;55.674;37.468;2023-04-08T12:13:57;100061.47;;;16.88;30.25
49178;BME280;35016;55.674;37.468;2023-04-08T12:16:24;100051.81;;;17.24;30.39
49178;BME280;35016;55.674;37.468;2023-04-08T12:18:51;100055.22;;;17.64;29.98
49178;BME280;35016;55.674;37.468;2023-04-08T12:21:18;100041.09;;;18.00;29.82
49178;BME280;35016;55.674;37.468;2023-04-08T12:23:46;100062.09;;;18.28;29.58
49178;BME280;35016;55.674;37.468;2023-04-08T12:26:13;100055.78;;;18.65;29.33
49178;BME280;35016;55.674;37.468;2023-04-08T12:28:40;100045.56;;;19.17;29.12
49178;BME280;35016;55.674;37.468;2023-04-08T12:31:07;100046.75;;;19.85;28.61
49178;BME280;35016;55.674;37.468;2023-04-08T12:33:34;100030.00;;;20.45;28.09
49178;BME280;35016;55.674;37.468;2023-04-08T12:36:01;100044.78;;;20.93;27.75
49178;BME280;35016;55.674;37.468;2023-04-08T12:38:28;100045.69;;;21.33;27.10
49178;BME280;35016;55.674;37.468;2023-04-08T12:40:55;100036.06;;;21.62;26.54
49178;BME280;35016;55.674;37.468;2023-04-08T12:43:22;100034.19;;;21.97;26.34
49178;BME280;35016;55.674;37.468;2023-04-08T12:45:49;100033.63;;;22.26;25.84
49178;BME280;35016;55.674;37.468;2023-04-08T12:48:17;100033.47;;;22.40;25.22
49178;BME280;35016;55.674;37.468;2023-04-08T12:50:44;100034.31;;;22.58;24.75
49178;BME280;35016;55.674;37.468;2023-04-08T12:53:11;100024.03;;;22.67;24.52
49178;BME280;35016;55.674;37.468;2023-04-08T12:55:38;100027.94;;;22.74;24.33
49178;BME280;35016;55.674;37.468;2023-04-08T12:58:05;100019.97;;;22.73;24.26
49178;BME280;35016;55.674;37.468;2023-04-08T13:00:32;100017.69;;;22.75;23.82
49178;BME280;35016;55.674;37.468;2023-04-08T13:02:59;100014.44;;;22.90;23.82
49178;BME280;35016;55.674;37.468;2023-04-08T13:05:26;100013.91;;;23.14;23.43
49178;BME280;35016;55.674;37.468;2023-04-08T13:08:09;100010.38;;;23.34;23.45
49178;BME280;35016;55.674;37.468;2023-04-08T13:10:37;100014.59;;;23.40;23.23